WetterOnline ( http://www.wetteronline.de )

Wetter aktuell Prag

Aktuelles Wetter: Prag-Kbely (287m)

6-stündlich | Neueste Meldungen
Ortszeit Temperatur Wetter
Sa, 25.11. 1:00 8.0° C leichter Regen
Fr, 24.11. 19:00 9.4° C wolkig
Fr, 24.11. 13:00 11.3° C leicht bewölkt
Fr, 24.11. 7:00 2.4° C leicht bewölkt
Ortszeit Temperatur Wetter
Sa, 25.11. 2:00 8.0° C bedeckt, nach Regen
Sa, 25.11. 1:00 8.0° C leichter Regen
Sa, 25.11. 0:00 8.7° C bedeckt
Fr, 24.11. 23:00 8.0° C bedeckt
Fr, 24.11. 22:00 6.6° C bedeckt
Fr, 24.11. 21:00 11.9° C bedeckt
Ortszeit Relative Feuchte Sichtweite
Sa, 25.11. 1:00 88% 18 km
Fr, 24.11. 19:00 76% 18 km
Fr, 24.11. 13:00 63% 18 km
Fr, 24.11. 7:00 96% 20 km
Ortszeit Relative Feuchte Sichtweite
Sa, 25.11. 2:00 85% 18 km
Sa, 25.11. 1:00 88% 18 km
Sa, 25.11. 0:00 81% 18 km
Fr, 24.11. 23:00 90% 18 km
Fr, 24.11. 22:00 95% 18 km
Fr, 24.11. 21:00 66% 18 km
Ortszeit Niederschlagsmenge Niederschlagsart
Sa, 25.11. 1:00 0.1 l/m2 in 6 Std. Regen
Fr, 24.11. 19:00 0.0 l/m2 in 12 Std. -
Fr, 24.11. 13:00 0.0 l/m2 in 6 Std. -
Fr, 24.11. 7:00 0.0 l/m2 in 12 Std. -
Ortszeit Niederschlagsmenge Niederschlagsart
Sa, 25.11. 2:00 0.0 l/m2 in 1 Std. Regen
Sa, 25.11. 1:00 0.1 l/m2 in 1 Std. Regen
Sa, 25.11. 0:00 0.0 l/m2 in 1 Std. -
Fr, 24.11. 23:00 0.0 l/m2 in 1 Std. -
Fr, 24.11. 22:00 0.0 l/m2 in 1 Std. -
Fr, 24.11. 21:00 0.0 l/m2 in 1 Std. -
Ortszeit Stärke Spitze Richtung
km/h Bft. km/h Grad Sektor
Sa, 25.11. 1:00 14 3 - 160° S
Fr, 24.11. 19:00 11 2 - 150° SO
Fr, 24.11. 13:00 7 2 - 60° NO
Fr, 24.11. 7:00 7 2 - 80° O
Ortszeit Stärke Spitze Richtung
km/h Bft. km/h Grad Sektor
Sa, 25.11. 2:00 4 1 - 320° NW
Sa, 25.11. 1:00 14 3 - 160° S
Sa, 25.11. 0:00 4 1 - 160° S
Fr, 24.11. 23:00 14 3 - 140° SO
Fr, 24.11. 22:00 7 2 - 120° SO
Fr, 24.11. 21:00 7 2 - 330° NW
Ortszeit Untergrenze Bedeckung Gattung
total tief tief mittel hoch
Sa, 25.11. 1:00 1500 m 8/8 8/8 Sc - -
Fr, 24.11. 19:00 1800 m 6/8 3/8 Sc As Ci
Fr, 24.11. 13:00 3000 m 4/8 4/8 - As -
Fr, 24.11. 7:00 3000 m 5/8 5/8 - As -
Ortszeit Bedeckungsgrad in Achtel und Wolkenuntergrenze
Sa, 25.11. 2:00 5(1500m) 8(1800m)
Sa, 25.11. 1:00 5(1500m) 8(1800m)
Sa, 25.11. 0:00 5(1500m) 8(2100m)
Fr, 24.11. 23:00 8(1500m)
Fr, 24.11. 22:00 8(1500m)
Fr, 24.11. 21:00 5(1230m) 8(1800m)
Ortszeit Luftdruck NN (hPa) Tendenz (hPa in 3 Std.)
Sa, 25.11. 1:00 1015 0,0
Fr, 24.11. 19:00 1014 + 0,1
Fr, 24.11. 13:00 1014 - 1,0
Fr, 24.11. 7:00 1017 - 0,1
Ortszeit Luftdruck NN (hPa) Tendenz (hPa in 3 Std.)
Sa, 25.11. 2:00 1014 - 0,1
Sa, 25.11. 1:00 1015 0,0
Sa, 25.11. 0:00 1015 + 0,1
Fr, 24.11. 23:00 1014 - 0,1
Fr, 24.11. 22:00 1015 + 0,3
Fr, 24.11. 21:00 1014 + 0,4
Ortszeit Schneehöhe (cm)
Sa, 25.11. 1:00 -
Fr, 24.11. 19:00 -
Fr, 24.11. 13:00 -
Fr, 24.11. 7:00 -
Ortszeit Schneehöhe (cm)
Sa, 25.11. 2:00 -
Sa, 25.11. 1:00 -
Sa, 25.11. 0:00 -
Fr, 24.11. 23:00 -
Fr, 24.11. 22:00 -
Fr, 24.11. 21:00 -
Link zu dieser Seite / Seite empfehlen

Das Wetter in ...